Time;durP1;ratioP1;P1;durP2;ratioP2;P2;SDS_P1;SDS_P2;PMS_P1;PMS_P2;Temp;Humidity;BMP_temperature;BMP_pressure;BME280_temperature;BME280_humidity;BME280_pressure;Samples;Min_cycle;Max_cycle;Signal;HPM_P1;HPM_P2
2024/01/09 00:01:45;;;;;;;36.10;21.70;;;;;;;-13.41;75.11;98119.95;109365;1269;22616;-79
2024/01/09 00:04:16;;;;;;;29.30;14.90;;;;;;;-13.48;74.76;98122.93;109289;1272;34839;-79
2024/01/09 00:06:49;;;;;;;31.10;16.90;;;;;;;-13.72;74.39;98127.20;109329;1272;22472;-79
2024/01/09 00:09:23;;;;;;;29.30;14.90;;;;;;;-13.85;74.64;98128.83;109379;1266;23293;-79
2024/01/09 00:11:57;;;;;;;28.00;14.60;;;;;;;-13.72;75.01;98135.02;109323;1272;22541;-79
2024/01/09 00:14:28;;;;;;;29.10;15.10;;;;;;;-13.66;75.17;98133.30;109215;1273;24253;-79
2024/01/09 00:16:59;;;;;;;27.00;11.70;;;;;;;-13.55;75.29;98137.44;109227;1265;22598;-79
2024/01/09 00:19:34;;;;;;;32.50;14.70;;;;;;;-13.50;75.54;98142.05;109233;1272;23269;-79
2024/01/09 00:22:06;;;;;;;30.90;13.10;;;;;;;-13.45;75.34;98145.20;109202;1273;57886;-80
2024/01/09 00:24:37;;;;;;;28.30;13.50;;;;;;;-13.42;75.41;98149.88;109341;1272;24174;-79
2024/01/09 00:27:08;;;;;;;31.90;14.30;;;;;;;-13.36;75.05;98149.59;109290;1272;22631;-79
2024/01/09 00:29:39;;;;;;;22.50;12.50;;;;;;;-13.34;74.86;98153.70;109331;1272;22984;-79
2024/01/09 00:32:10;;;;;;;27.70;11.80;;;;;;;-13.39;74.72;98151.10;109237;1272;49672;-79
2024/01/09 00:34:43;;;;;;;26.20;12.50;;;;;;;-13.54;74.40;98152.16;109323;1269;22960;-79
2024/01/09 00:37:15;;;;;;;23.80;11.80;;;;;;;-13.78;74.30;98160.37;109302;1272;25294;-79
2024/01/09 00:39:47;;;;;;;19.70;11.00;;;;;;;-13.77;74.69;98171.19;109248;1261;22537;-80
2024/01/09 00:42:21;;;;;;;27.00;12.30;;;;;;;-13.64;75.37;98176.23;109271;1271;51277;-80
2024/01/09 00:44:54;;;;;;;25.60;11.10;;;;;;;-13.50;75.37;98173.52;109297;1272;22546;-79
2024/01/09 00:47:26;;;;;;;24.70;10.90;;;;;;;-13.39;75.54;98179.50;109346;1272;22554;-79
2024/01/09 00:49:57;;;;;;;27.80;12.30;;;;;;;-13.38;75.01;98176.73;109340;1269;22522;-80
2024/01/09 00:52:29;;;;;;;22.70;11.30;;;;;;;-13.45;75.05;98179.72;109285;1266;42081;-79
2024/01/09 00:55:00;;;;;;;22.00;11.20;;;;;;;-13.43;75.07;98178.20;109293;1272;22523;-79
2024/01/09 00:57:32;;;;;;;33.40;15.30;;;;;;;-13.64;74.43;98184.73;109348;1272;22577;-79
2024/01/09 01:00:03;;;;;;;32.30;14.20;;;;;;;-13.82;74.45;98183.20;109332;1272;22513;-80
2024/01/09 01:02:35;;;;;;;29.30;14.30;;;;;;;-13.84;74.96;98182.95;109313;1267;28795;-79
2024/01/09 01:05:08;;;;;;;31.70;14.90;;;;;;;-13.75;75.35;98182.85;109328;1269;23342;-79
2024/01/09 01:07:44;;;;;;;30.80;14.40;;;;;;;-13.62;75.51;98185.13;110779;1272;22862;-80
2024/01/09 01:10:16;;;;;;;29.00;14.00;;;;;;;-13.50;75.48;98184.24;110761;1271;22923;-80
2024/01/09 01:12:49;;;;;;;26.90;14.10;;;;;;;-13.39;75.36;98188.68;110719;1265;48139;-79
2024/01/09 01:15:26;;;;;;;28.40;13.40;;;;;;;-13.32;75.22;98185.17;110720;1272;22202;-79
2024/01/09 01:17:58;;;;;;;27.40;12.30;;;;;;;-13.43;74.76;98191.48;110147;1269;22586;-79
2024/01/09 01:20:31;;;;;;;28.90;13.00;;;;;;;-13.64;74.62;98189.65;109326;1272;22631;-79
2024/01/09 01:23:04;;;;;;;30.60;15.20;;;;;;;-13.77;74.49;98190.73;109293;1272;42684;-79
2024/01/09 01:25:36;;;;;;;36.10;16.00;;;;;;;-13.90;74.44;98193.52;109335;1266;25420;-79
2024/01/09 01:28:10;;;;;;;36.90;15.40;;;;;;;-14.05;74.41;98195.88;109332;1272;24183;-79
2024/01/09 01:30:41;;;;;;;37.30;17.40;;;;;;;-14.12;74.76;98189.15;109366;1265;22513;-79
2024/01/09 01:33:12;;;;;;;36.40;16.20;;;;;;;-14.14;75.03;98191.30;109308;1272;41898;-79
2024/01/09 01:35:43;;;;;;;40.00;16.90;;;;;;;-14.04;75.41;98186.51;109386;1272;23204;-79
2024/01/09 01:38:14;;;;;;;31.90;16.50;;;;;;;-14.09;75.12;98183.73;109364;1272;22949;-79
2024/01/09 01:40:45;;;;;;;35.70;16.30;;;;;;;-14.16;75.27;98183.29;109359;1272;24301;-79
2024/01/09 01:43:16;;;;;;;35.00;15.90;;;;;;;-14.10;75.46;98183.23;109312;1272;54971;-79
2024/01/09 01:45:50;;;;;;;36.10;16.20;;;;;;;-14.08;75.58;98181.30;109360;1272;22666;-79
2024/01/09 01:48:22;;;;;;;37.00;15.80;;;;;;;-14.04;75.74;98178.70;109335;1272;22532;-79
2024/01/09 01:50:54;;;;;;;32.40;15.30;;;;;;;-14.03;75.73;98183.75;109339;1272;23493;-79
2024/01/09 01:53:30;;;;;;;35.30;16.80;;;;;;;-13.96;75.91;98183.48;109365;1266;34655;-79
2024/01/09 01:56:02;;;;;;;30.60;13.90;;;;;;;-13.93;75.86;98187.55;109300;1266;22531;-79
2024/01/09 01:58:35;;;;;;;25.90;11.60;;;;;;;-13.96;75.75;98187.73;109339;1272;25268;-79
2024/01/09 02:01:07;;;;;;;31.00;13.90;;;;;;;-14.08;75.34;98182.45;109322;1272;25414;-79
2024/01/09 02:03:39;;;;;;;27.70;12.80;;;;;;;-14.15;75.42;98181.30;109310;1271;40725;-79
2024/01/09 02:06:11;;;;;;;23.10;11.70;;;;;;;-14.11;75.39;98181.96;109314;1271;22532;-79
2024/01/09 02:08:44;;;;;;;32.90;14.60;;;;;;;-14.19;74.81;98182.56;109321;1269;23375;-79
2024/01/09 02:11:17;;;;;;;29.00;12.90;;;;;;;-14.52;74.41;98184.12;109324;1269;22569;-79
2024/01/09 02:13:48;;;;;;;27.30;14.00;;;;;;;-14.80;74.11;98182.59;109282;1272;35899;-79
2024/01/09 02:16:27;;;;;;;26.10;13.00;;;;;;;-15.04;74.28;98185.40;110719;1269;22398;-79
2024/01/09 02:18:59;;;;;;;25.80;12.00;;;;;;;-15.25;74.12;98183.08;110653;1266;22364;-79
2024/01/09 02:21:33;;;;;;;26.00;11.90;;;;;;;-15.38;74.25;98183.92;110751;1271;22152;-79
2024/01/09 02:24:09;;;;;;;29.80;14.20;;;;;;;-15.49;74.30;98186.39;110744;1271;35401;-79
2024/01/09 02:26:53;;;;;;;29.60;12.60;;;;;;;-15.53;74.64;98180.13;110775;1271;22195;-79
2024/01/09 02:29:33;;;;;;;26.20;12.10;;;;;;;-15.44;75.18;98181.39;110752;1269;22206;-79
2024/01/09 02:32:05;;;;;;;22.30;10.70;;;;;;;-15.36;74.99;98179.41;110767;1271;22324;-79
2024/01/09 02:34:42;;;;;;;20.80;10.20;;;;;;;-15.28;75.01;98184.61;110654;1271;22679;-79
2024/01/09 02:37:14;;;;;;;21.80;11.30;;;;;;;-15.25;74.45;98185.50;110626;1272;22175;-79
2024/01/09 02:39:47;;;;;;;22.00;11.00;;;;;;;-15.31;74.07;98181.06;110674;1271;22381;-79
2024/01/09 02:42:20;;;;;;;22.20;11.30;;;;;;;-15.26;74.09;98184.15;110588;1267;49443;-79
2024/01/09 02:44:55;;;;;;;24.10;12.20;;;;;;;-15.30;73.83;98178.77;110729;1271;22582;-79
2024/01/09 02:47:29;;;;;;;25.20;10.70;;;;;;;-15.34;73.83;98176.98;110769;1266;22284;-79
2024/01/09 02:50:01;;;;;;;26.40;11.40;;;;;;;-15.40;73.88;98180.46;110758;1271;22263;-79
2024/01/09 02:52:34;;;;;;;18.20;8.50;;;;;;;-15.50;73.39;98181.19;110674;1265;62827;-79
2024/01/09 02:55:05;;;;;;;21.30;9.70;;;;;;;-15.67;73.17;98188.17;110757;1271;22657;-79
2024/01/09 02:57:40;;;;;;;24.40;11.30;;;;;;;-15.77;73.45;98190.87;110623;1271;22252;-79
2024/01/09 03:00:13;;;;;;;20.00;9.30;;;;;;;-15.77;73.47;98190.85;110667;1267;22179;-79
2024/01/09 03:02:46;;;;;;;29.80;12.40;;;;;;;-15.93;73.17;98192.04;110721;1269;53692;-79
2024/01/09 03:05:17;;;;;;;30.80;13.00;;;;;;;-16.09;73.39;98190.91;110756;1256;22317;-79
2024/01/09 03:07:57;;;;;;;28.00;11.90;;;;;;;-16.07;73.77;98187.48;110757;1272;22921;-79
2024/01/09 03:10:30;;;;;;;26.70;12.90;;;;;;;-16.15;73.51;98188.31;110783;1272;22290;-79
2024/01/09 03:13:01;;;;;;;31.50;13.00;;;;;;;-16.38;73.19;98184.54;110708;1272;22864;-79
2024/01/09 03:15:33;;;;;;;23.20;9.90;;;;;;;-16.55;73.29;98185.86;110750;1272;22964;-79
2024/01/09 03:18:06;;;;;;;20.20;10.60;;;;;;;-16.57;73.72;98187.97;110749;1272;22280;-79
2024/01/09 03:20:38;;;;;;;24.40;11.30;;;;;;;-16.45;74.11;98189.95;109878;1272;22657;-78
2024/01/09 03:23:09;;;;;;;25.00;10.10;;;;;;;-16.30;74.33;98191.92;109306;1267;41272;-78
2024/01/09 03:25:40;;;;;;;19.40;7.60;;;;;;;-16.31;73.60;98193.35;109337;1272;23000;-79
2024/01/09 03:28:11;;;;;;;21.50;9.40;;;;;;;-16.76;72.59;98191.44;109289;1272;22522;-78
2024/01/09 03:30:42;;;;;;;21.90;7.20;;;;;;;-17.17;72.64;98190.40;109354;1272;22691;-78
2024/01/09 03:33:16;;;;;;;22.70;9.40;;;;;;;-17.24;73.22;98188.86;110760;1266;41014;-79
2024/01/09 03:35:50;;;;;;;29.90;13.00;;;;;;;-17.24;73.61;98185.29;110761;1269;22313;-78
2024/01/09 03:38:23;;;;;;;32.80;14.10;;;;;;;-17.23;73.64;98182.91;110245;1272;22587;-78
2024/01/09 03:40:55;;;;;;;31.00;12.50;;;;;;;-17.23;73.97;98180.17;109234;1272;24237;-78
2024/01/09 03:43:26;;;;;;;32.40;13.30;;;;;;;-17.19;73.99;98177.30;109298;1266;64448;-79
2024/01/09 03:45:58;;;;;;;25.60;12.20;;;;;;;-17.16;74.05;98181.73;109289;1272;23384;-78
2024/01/09 03:48:29;;;;;;;20.20;8.90;;;;;;;-17.09;74.35;98178.23;109346;1257;25209;-78
2024/01/09 03:51:00;;;;;;;15.20;5.80;;;;;;;-17.02;74.49;98178.73;109268;1272;22695;-79
2024/01/09 03:53:32;;;;;;;12.30;5.30;;;;;;;-16.99;74.44;98180.66;109278;1269;65704;-78
2024/01/09 03:56:03;;;;;;;15.70;5.70;;;;;;;-17.06;74.27;98182.64;109342;1272;22566;-78
2024/01/09 03:58:34;;;;;;;13.00;5.90;;;;;;;-17.08;74.10;98184.95;109316;1272;25938;-78
2024/01/09 04:01:06;;;;;;;12.80;5.20;;;;;;;-17.03;74.36;98188.10;109338;1272;22827;-78
2024/01/09 04:03:39;;;;;;;15.20;6.30;;;;;;;-17.06;74.16;98189.05;109323;1272;27888;-78
2024/01/09 04:06:10;;;;;;;16.20;6.50;;;;;;;-17.25;73.71;98195.83;109312;1272;24218;-78
2024/01/09 04:08:42;;;;;;;15.80;6.90;;;;;;;-17.29;74.00;98198.70;109290;1266;22545;-78
2024/01/09 04:11:13;;;;;;;18.70;6.90;;;;;;;-17.26;74.00;98201.46;109311;1266;24205;-78
2024/01/09 04:13:44;;;;;;;15.70;5.60;;;;;;;-17.37;73.95;98197.39;109298;1271;48788;-78
2024/01/09 04:16:19;;;;;;;15.90;8.10;;;;;;;-17.47;73.88;98198.80;109303;1270;22552;-78
2024/01/09 04:18:53;;;;;;;25.30;8.00;;;;;;;-17.51;74.15;98202.00;109361;1272;23818;-79
2024/01/09 04:21:24;;;;;;;17.40;9.10;;;;;;;-17.44;74.39;98203.75;109340;1269;22586;-78
2024/01/09 04:23:58;;;;;;;17.60;8.70;;;;;;;-17.42;74.46;98207.71;109243;1272;76254;-78
2024/01/09 04:26:29;;;;;;;16.70;7.40;;;;;;;-17.40;74.60;98207.13;109329;1272;22491;-78
2024/01/09 04:29:00;;;;;;;16.40;6.70;;;;;;;-17.28;74.83;98212.88;109358;1269;22521;-78
2024/01/09 04:31:34;;;;;;;16.20;7.10;;;;;;;-17.15;75.08;98209.60;109310;1269;22562;-78
2024/01/09 04:34:05;;;;;;;11.40;5.50;;;;;;;-17.12;74.74;98209.29;109282;1272;67431;-78
2024/01/09 04:36:37;;;;;;;16.40;7.50;;;;;;;-17.06;74.83;98210.20;109336;1270;22514;-78
2024/01/09 04:39:09;;;;;;;13.00;6.30;;;;;;;-17.04;74.58;98204.70;109291;1254;22522;-78
2024/01/09 04:41:45;;;;;;;14.90;6.60;;;;;;;-17.02;74.51;98211.54;109348;1272;22543;-78
2024/01/09 04:44:16;;;;;;;14.50;6.10;;;;;;;-17.00;74.40;98210.95;109313;1269;82719;-78
2024/01/09 04:46:47;;;;;;;13.20;6.00;;;;;;;-16.98;74.07;98216.77;109341;1269;22604;-78
2024/01/09 04:49:18;;;;;;;14.80;6.00;;;;;;;-17.13;73.39;98214.23;109322;1272;22528;-78
2024/01/09 04:51:50;;;;;;;16.20;6.20;;;;;;;-17.27;73.39;98221.79;109319;1272;22558;-78
2024/01/09 04:54:26;;;;;;;14.40;5.80;;;;;;;-17.32;73.58;98216.07;109280;1272;38181;-78
2024/01/09 04:56:57;;;;;;;15.60;6.70;;;;;;;-17.32;73.68;98224.52;109346;1269;22580;-78
2024/01/09 04:59:31;;;;;;;17.60;6.90;;;;;;;-17.27;73.94;98224.83;109308;1272;22977;-78
2024/01/09 05:02:04;;;;;;;13.50;7.00;;;;;;;-17.15;74.22;98226.80;109335;1272;22743;-78
2024/01/09 05:04:35;;;;;;;11.90;5.90;;;;;;;-17.00;74.31;98229.70;109293;1267;85772;-78
2024/01/09 05:07:07;;;;;;;17.50;7.10;;;;;;;-16.98;74.08;98230.13;109349;1269;25069;-78
2024/01/09 05:09:39;;;;;;;15.50;7.00;;;;;;;-16.92;74.00;98235.75;109302;1272;22527;-78
2024/01/09 05:12:11;;;;;;;18.70;8.00;;;;;;;-16.92;73.70;98238.98;110754;1272;22291;-79
2024/01/09 05:14:42;;;;;;;13.70;6.50;;;;;;;-16.90;73.57;98236.36;110002;1266;22547;-79
2024/01/09 05:17:13;;;;;;;17.00;7.50;;;;;;;-16.88;73.65;98237.98;109286;1272;22531;-78
2024/01/09 05:19:44;;;;;;;16.80;7.20;;;;;;;-16.98;73.17;98240.42;109282;1265;24938;-78
2024/01/09 05:22:15;;;;;;;15.60;6.50;;;;;;;-17.02;73.02;98252.11;109225;1269;90060;-79
2024/01/09 05:24:46;;;;;;;17.10;6.90;;;;;;;-17.01;72.99;98249.37;109359;1272;22536;-78
2024/01/09 05:27:20;;;;;;;16.90;6.20;;;;;;;-16.97;72.80;98252.73;109400;1264;22627;-78
2024/01/09 05:29:52;;;;;;;17.00;7.90;;;;;;;-16.98;72.78;98256.31;109373;1272;22521;-78
2024/01/09 05:32:25;;;;;;;13.70;6.80;;;;;;;-17.02;72.66;98253.43;109296;1272;30399;-78
2024/01/09 05:34:56;;;;;;;15.70;7.00;;;;;;;-17.17;72.42;98262.88;109374;1263;22544;-78
2024/01/09 05:37:27;;;;;;;19.50;9.00;;;;;;;-17.29;72.36;98261.39;109350;1272;22462;-78
2024/01/09 05:40:02;;;;;;;17.00;7.40;;;;;;;-17.38;72.50;98269.39;109398;1272;22550;-78
2024/01/09 05:42:33;;;;;;;17.10;7.60;;;;;;;-17.45;72.52;98270.16;109288;1272;52807;-78
2024/01/09 05:45:05;;;;;;;18.30;7.80;;;;;;;-17.54;72.46;98277.98;109378;1272;22566;-78
2024/01/09 05:47:36;;;;;;;23.60;9.10;;;;;;;-17.49;72.83;98278.11;109363;1272;22521;-78
2024/01/09 05:50:09;;;;;;;31.10;12.00;;;;;;;-17.40;73.17;98279.75;109320;1269;22563;-78
2024/01/09 05:52:40;;;;;;;32.40;12.20;;;;;;;-17.29;73.18;98284.06;110572;1272;81425;-78
2024/01/09 05:55:12;;;;;;;63.00;22.20;;;;;;;-17.22;73.13;98285.56;109307;1269;25236;-78
2024/01/09 05:57:46;;;;;;;60.40;22.80;;;;;;;-17.22;73.08;98289.80;109362;1270;22550;-78
2024/01/09 06:00:18;;;;;;;43.10;16.00;;;;;;;-17.11;73.21;98288.83;109348;1272;22524;-78
2024/01/09 06:02:50;;;;;;;42.10;14.90;;;;;;;-17.12;72.78;98290.22;109322;1266;29442;-78
2024/01/09 06:05:28;;;;;;;34.90;13.80;;;;;;;-17.06;72.94;98294.05;109310;1269;22475;-78
2024/01/09 06:08:01;;;;;;;27.00;11.20;;;;;;;-17.11;72.60;98292.54;109281;1272;22543;-78
2024/01/09 06:10:35;;;;;;;24.30;10.00;;;;;;;-17.25;72.32;98292.50;109320;1271;22539;-78
2024/01/09 06:13:09;;;;;;;30.90;11.60;;;;;;;-17.38;72.21;98296.39;109315;1272;40895;-78
2024/01/09 06:15:42;;;;;;;28.00;11.20;;;;;;;-17.70;71.93;98299.26;109310;1272;24217;-78
2024/01/09 06:18:14;;;;;;;27.50;12.00;;;;;;;-17.85;72.23;98300.09;109358;1272;22511;-78
2024/01/09 06:20:45;;;;;;;30.90;12.40;;;;;;;-17.90;72.51;98302.13;109337;1272;22525;-78
2024/01/09 06:23:22;;;;;;;26.50;11.60;;;;;;;-17.89;72.85;98300.20;109312;1272;34359;-78
2024/01/09 06:25:55;;;;;;;23.20;10.60;;;;;;;-17.76;73.27;98302.58;109366;1270;22529;-78
2024/01/09 06:28:26;;;;;;;26.40;9.30;;;;;;;-17.64;73.37;98301.70;109342;1269;22558;-78
2024/01/09 06:30:58;;;;;;;22.90;9.60;;;;;;;-17.60;73.30;98304.55;109296;1269;22655;-78
2024/01/09 06:33:30;;;;;;;21.30;10.30;;;;;;;-17.55;73.04;98305.58;109332;1270;26254;-78
2024/01/09 06:36:04;;;;;;;22.40;10.10;;;;;;;-17.55;73.06;98307.58;109367;1272;22569;-78
2024/01/09 06:38:35;;;;;;;19.50;9.90;;;;;;;-17.40;73.54;98305.61;109344;1272;23779;-78
2024/01/09 06:41:09;;;;;;;27.20;10.40;;;;;;;-17.23;73.64;98307.59;109345;1272;22590;-78
2024/01/09 06:43:41;;;;;;;22.10;9.70;;;;;;;-17.16;73.38;98308.67;109372;1267;60239;-78
2024/01/09 06:46:12;;;;;;;23.70;9.20;;;;;;;-17.15;73.10;98315.22;109360;1272;22517;-78
2024/01/09 06:48:50;;;;;;;17.40;9.10;;;;;;;-17.20;72.66;98319.81;110784;1272;23073;-78
2024/01/09 06:51:24;;;;;;;17.10;9.10;;;;;;;-17.45;72.44;98321.35;110752;1272;22356;-78
2024/01/09 06:54:02;;;;;;;21.40;8.90;;;;;;;-17.43;72.75;98322.11;110736;1266;50845;-78
2024/01/09 06:56:35;;;;;;;19.50;8.50;;;;;;;-17.37;73.04;98323.71;110727;1271;22347;-78
2024/01/09 06:59:10;;;;;;;23.60;9.90;;;;;;;-17.24;73.39;98325.88;110779;1270;22224;-78
2024/01/09 07:01:42;;;;;;;23.00;9.80;;;;;;;-17.07;73.80;98325.50;110730;1260;22302;-78
2024/01/09 07:04:13;;;;;;;21.70;9.30;;;;;;;-16.95;73.51;98322.78;110761;1272;37091;-78
2024/01/09 07:06:46;;;;;;;26.40;10.60;;;;;;;-16.85;73.30;98329.28;110740;1267;23037;-78
2024/01/09 07:09:20;;;;;;;45.80;16.90;;;;;;;-16.93;72.60;98333.34;110690;1267;22207;-78
2024/01/09 07:11:54;;;;;;;59.70;29.70;;;;;;;-17.13;71.95;98340.15;110583;1270;22210;-78
2024/01/09 07:14:28;;;;;;;54.70;31.80;;;;;;;-16.87;72.17;98340.55;110664;1265;43971;-78
2024/01/09 07:17:04;;;;;;;70.30;33.40;;;;;;;-16.13;73.04;98339.41;110735;1269;22509;-78
2024/01/09 07:19:39;;;;;;;63.00;31.50;;;;;;;-15.29;73.41;98344.17;110700;1266;22285;-78
2024/01/09 07:22:10;;;;;;;45.90;23.10;;;;;;;-14.48;73.49;98340.55;110733;1272;22171;-79
2024/01/09 07:24:42;;;;;;;48.00;25.40;;;;;;;-13.81;73.11;98337.61;110682;1271;36813;-79
2024/01/09 07:27:13;;;;;;;45.80;23.30;;;;;;;-13.30;72.44;98334.42;110730;1264;23181;-79
2024/01/09 07:29:46;;;;;;;61.20;28.90;;;;;;;-12.75;72.52;98336.13;110700;1264;22424;-78
2024/01/09 07:32:18;;;;;;;48.00;27.10;;;;;;;-12.19;72.17;98338.67;110635;1267;116711;-79
2024/01/09 07:34:50;;;;;;;51.10;25.60;;;;;;;-11.93;71.16;98333.81;110729;1269;22286;-79
2024/01/09 07:37:22;;;;;;;53.80;30.80;;;;;;;-11.99;70.65;98336.60;110593;1272;22542;-78
2024/01/09 07:39:54;;;;;;;62.60;28.40;;;;;;;-11.57;71.20;98339.19;109302;1267;24872;-78
2024/01/09 07:42:25;;;;;;;51.70;28.00;;;;;;;-11.41;70.54;98340.36;109247;1272;84988;-78
2024/01/09 07:44:56;;;;;;;44.40;24.20;;;;;;;-11.04;71.27;98338.14;109330;1272;22521;-78
2024/01/09 07:47:29;;;;;;;41.80;23.10;;;;;;;-10.56;71.15;98335.94;109347;1254;24074;-78
2024/01/09 07:50:01;;;;;;;45.00;21.30;;;;;;;-10.66;70.21;98337.48;109313;1272;22579;-78
2024/01/09 07:52:32;;;;;;;43.10;21.80;;;;;;;-11.16;69.66;98335.54;109272;1272;61645;-78
2024/01/09 07:55:03;;;;;;;42.40;23.80;;;;;;;-11.43;69.84;98343.88;109320;1270;22608;-77
2024/01/09 07:57:35;;;;;;;41.90;21.30;;;;;;;-11.29;70.94;98346.25;110697;1257;22608;-78
2024/01/09 08:00:09;;;;;;;40.20;22.00;;;;;;;-10.95;71.75;98343.17;109313;1267;22506;-78
2024/01/09 08:02:41;;;;;;;41.60;21.50;;;;;;;-10.87;71.39;98344.00;110665;1270;54602;-78
2024/01/09 08:05:13;;;;;;;40.80;22.10;;;;;;;-10.88;71.00;98348.35;110743;1272;23023;-78
2024/01/09 08:07:45;;;;;;;40.30;21.90;;;;;;;-10.65;71.57;98347.52;110710;1271;22263;-78
2024/01/09 08:10:17;;;;;;;52.80;26.40;;;;;;;-10.72;71.20;98347.80;110744;1269;22790;-78
2024/01/09 08:12:52;;;;;;;53.10;25.30;;;;;;;-11.09;70.45;98346.87;110704;1272;28823;-78
2024/01/09 08:15:25;;;;;;;50.80;25.40;;;;;;;-10.92;70.40;98344.73;110756;1264;22168;-78
2024/01/09 08:17:59;;;;;;;46.10;23.70;;;;;;;-10.68;70.67;98343.30;110692;1272;22295;-78
2024/01/09 08:20:37;;;;;;;48.90;23.60;;;;;;;-10.75;70.63;98346.30;110746;1264;22291;-78
2024/01/09 08:23:08;;;;;;;44.50;23.40;;;;;;;-10.85;70.70;98347.79;110705;1266;47027;-78
2024/01/09 08:25:40;;;;;;;37.90;21.20;;;;;;;-10.71;70.89;98351.80;110754;1270;22283;-78
2024/01/09 08:28:12;;;;;;;43.00;21.40;;;;;;;-10.54;71.10;98354.45;110776;1267;22298;-78
2024/01/09 08:30:44;;;;;;;43.70;22.20;;;;;;;-10.54;71.03;98353.25;110721;1270;22269;-78
2024/01/09 08:33:15;;;;;;;41.60;21.40;;;;;;;-10.51;71.29;98351.86;110623;1272;32496;-78
2024/01/09 08:35:50;;;;;;;52.90;24.60;;;;;;;-10.45;71.44;98349.72;110726;1272;22259;-78
2024/01/09 08:38:24;;;;;;;49.80;24.90;;;;;;;-10.58;70.94;98356.25;110730;1272;22131;-78
2024/01/09 08:41:01;;;;;;;41.60;22.80;;;;;;;-10.38;71.69;98353.19;110758;1272;23492;-78
2024/01/09 08:43:33;;;;;;;38.00;20.30;;;;;;;-10.23;71.26;98354.52;110295;1254;42263;-78
2024/01/09 08:46:04;;;;;;;34.00;17.70;;;;;;;-10.20;71.18;98352.28;109230;1267;22607;-78
2024/01/09 08:48:35;;;;;;;40.10;20.30;;;;;;;-10.31;70.56;98360.41;109310;1272;22522;-78
2024/01/09 08:51:08;;;;;;;33.70;16.70;;;;;;;-10.79;70.16;98358.34;109308;1272;22615;-78
2024/01/09 08:53:39;;;;;;;39.90;20.00;;;;;;;-11.01;70.45;98360.18;109301;1272;51645;-78
2024/01/09 08:56:11;;;;;;;32.20;16.50;;;;;;;-10.72;71.40;98366.27;109355;1272;22537;-78
2024/01/09 08:58:42;;;;;;;33.70;16.90;;;;;;;-10.48;71.75;98369.05;109360;1269;22545;-78
2024/01/09 09:01:14;;;;;;;35.10;17.90;;;;;;;-10.39;71.83;98366.95;109332;1272;25407;-78
2024/01/09 09:03:45;;;;;;;38.50;19.70;;;;;;;-10.50;71.44;98367.16;109190;1272;71137;-78
2024/01/09 09:06:17;;;;;;;43.80;19.60;;;;;;;-10.67;70.95;98366.09;109336;1272;24119;-78
2024/01/09 09:08:49;;;;;;;35.20;17.90;;;;;;;-10.69;71.32;98361.81;109332;1272;23271;-78
2024/01/09 09:11:21;;;;;;;29.20;15.60;;;;;;;-10.47;71.63;98359.63;109347;1271;22568;-78
2024/01/09 09:13:52;;;;;;;33.10;15.70;;;;;;;-10.27;71.81;98360.13;109311;1266;33188;-78
2024/01/09 09:16:28;;;;;;;32.40;17.40;;;;;;;-10.29;71.19;98357.33;109310;1267;22564;-78
2024/01/09 09:19:03;;;;;;;30.50;15.90;;;;;;;-10.49;70.52;98358.89;109348;1267;22706;-78
2024/01/09 09:21:34;;;;;;;31.30;15.40;;;;;;;-10.41;71.34;98351.52;109365;1272;23817;-78
2024/01/09 09:24:06;;;;;;;34.00;18.10;;;;;;;-10.27;71.35;98348.36;109309;1267;40274;-78
2024/01/09 09:26:40;;;;;;;33.30;16.90;;;;;;;-10.37;71.00;98346.79;109420;1266;22535;-77
2024/01/09 09:29:12;;;;;;;33.10;15.50;;;;;;;-10.20;71.45;98342.16;109314;1272;22462;-78
2024/01/09 09:31:43;;;;;;;29.30;14.50;;;;;;;-10.00;71.59;98340.39;109375;1272;22575;-78
2024/01/09 09:34:14;;;;;;;25.70;13.60;;;;;;;-9.77;72.02;98331.81;109318;1268;52433;-78
2024/01/09 09:36:45;;;;;;;27.50;14.00;;;;;;;-9.67;71.93;98326.61;109336;1272;22490;-77
2024/01/09 09:39:17;;;;;;;30.40;15.00;;;;;;;-9.67;71.68;98325.96;109335;1267;22510;-78
2024/01/09 09:41:50;;;;;;;24.70;13.90;;;;;;;-9.50;71.53;98326.64;109346;1270;22637;-78
2024/01/09 09:44:25;;;;;;;26.10;13.80;;;;;;;-9.25;71.94;98317.79;109327;1272;59811;-78
2024/01/09 09:46:56;;;;;;;26.30;13.70;;;;;;;-9.05;71.96;98319.52;109380;1267;22557;-78
2024/01/09 09:49:28;;;;;;;25.60;13.40;;;;;;;-8.94;71.99;98315.83;109310;1272;24369;-78
2024/01/09 09:52:01;;;;;;;24.20;13.20;;;;;;;-8.70;72.14;98310.42;109385;1272;25417;-78
2024/01/09 09:54:38;;;;;;;28.50;15.30;;;;;;;-8.49;72.04;98306.40;110687;1272;51994;-78
2024/01/09 09:57:09;;;;;;;32.00;15.20;;;;;;;-8.37;71.59;98307.59;110711;1271;22176;-78
2024/01/09 09:59:42;;;;;;;34.00;15.40;;;;;;;-8.31;71.82;98300.42;110711;1272;22279;-78
2024/01/09 10:02:25;;;;;;;31.40;16.50;;;;;;;-8.17;71.79;98298.55;110749;1272;22826;-78
2024/01/09 10:05:10;;;;;;;32.60;17.40;;;;;;;-7.96;71.93;98293.70;110756;1266;22817;-78
2024/01/09 10:07:45;;;;;;;40.90;20.30;;;;;;;-7.91;71.69;98291.73;110709;1272;22237;-78
2024/01/09 10:10:16;;;;;;;38.30;19.10;;;;;;;-8.25;71.03;98289.33;110687;1271;22219;-79
2024/01/09 10:12:53;;;;;;;29.80;16.10;;;;;;;-8.64;70.36;98288.91;110595;1269;143935;-79
2024/01/09 10:15:26;;;;;;;28.30;14.40;;;;;;;-8.86;70.61;98287.98;110704;1266;22190;-78
2024/01/09 10:18:01;;;;;;;34.80;17.50;;;;;;;-8.82;70.57;98285.96;110693;1256;22120;-78
2024/01/09 10:20:33;;;;;;;38.20;19.10;;;;;;;-9.15;69.94;98294.28;110723;1251;22188;-79
2024/01/09 10:23:06;;;;;;;43.40;22.00;;;;;;;-9.53;69.51;98293.14;110713;1266;23201;-79
2024/01/09 10:25:40;;;;;;;45.30;23.40;;;;;;;-9.75;69.52;98290.25;110750;1267;22199;-79
2024/01/09 10:28:17;;;;;;;52.20;27.30;;;;;;;-9.91;69.32;98288.66;110745;1271;23202;-79
2024/01/09 10:31:06;;;;;;;66.20;31.40;;;;;;;-10.03;69.25;98290.91;110701;1272;22219;-78
2024/01/09 10:33:42;;;;;;;62.00;32.90;;;;;;;-10.13;69.25;98290.43;110719;1272;55267;-78
2024/01/09 10:36:15;;;;;;;61.10;30.80;;;;;;;-10.08;69.60;98284.74;110747;1272;22458;-79
2024/01/09 10:38:48;;;;;;;60.40;31.10;;;;;;;-10.02;69.87;98284.85;110722;1266;22206;-78
2024/01/09 10:41:20;;;;;;;69.80;34.30;;;;;;;-9.89;70.29;98281.84;110731;1266;22328;-78
2024/01/09 10:43:53;;;;;;;60.40;29.00;;;;;;;-9.77;70.43;98276.52;110750;1272;26580;-79
2024/01/09 10:46:27;;;;;;;58.00;29.40;;;;;;;-9.85;69.47;98273.36;110548;1267;201064;-78
2024/01/09 10:49:07;;;;;;;57.50;28.20;;;;;;;-9.97;69.59;98275.57;110767;1272;22285;-78
2024/01/09 10:51:45;;;;;;;57.70;29.00;;;;;;;-9.79;70.04;98277.91;110711;1272;23082;-78
2024/01/09 10:54:20;;;;;;;51.60;25.30;;;;;;;-9.59;70.41;98274.22;110666;1269;65938;-78
2024/01/09 10:56:54;;;;;;;58.60;30.00;;;;;;;-9.46;70.14;98277.73;110743;1266;22347;-79
2024/01/09 10:59:28;;;;;;;52.80;27.90;;;;;;;-9.45;69.96;98274.95;110422;1272;22567;-79
2024/01/09 11:01:59;;;;;;;52.40;25.90;;;;;;;-9.32;70.09;98272.73;109385;1272;22494;-78
2024/01/09 11:04:32;;;;;;;57.10;29.00;;;;;;;-9.16;70.22;98270.17;109356;1271;67276;-78
2024/01/09 11:07:06;;;;;;;57.30;28.10;;;;;;;-8.99;70.13;98270.14;109317;1250;22524;-78
2024/01/09 11:09:43;;;;;;;52.90;25.80;;;;;;;-8.72;70.21;98261.20;109385;1266;22558;-78
2024/01/09 11:12:19;;;;;;;55.20;30.20;;;;;;;-8.73;69.89;98250.63;110600;1272;23412;-79
2024/01/09 11:14:58;;;;;;;58.80;27.00;;;;;;;-9.14;68.50;98256.84;110596;1272;22247;-79
2024/01/09 11:17:33;;;;;;;61.60;30.20;;;;;;;-9.34;68.96;98257.65;110621;1272;22402;-79
2024/01/09 11:20:07;;;;;;;62.90;31.80;;;;;;;-9.28;69.55;98255.13;109480;1272;22635;-78
2024/01/09 11:22:39;;;;;;;67.20;35.20;;;;;;;-9.17;69.44;98254.16;109241;1272;25379;-78
2024/01/09 11:25:17;;;;;;;63.90;30.70;;;;;;;-9.04;69.50;98256.05;109353;1267;23190;-78
2024/01/09 11:27:50;;;;;;;66.80;32.70;;;;;;;-9.07;69.09;98253.58;109423;1272;24167;-78
2024/01/09 11:30:27;;;;;;;62.20;31.10;;;;;;;-9.14;69.00;98255.30;109349;1272;22525;-78